In Rescue
 
Open Full Screen Window  High Contrast Mode
Wind Gusting 00 knots
07
July 25, 2021 7:38 AM EDT
Present Weather: Heavy Rain
Weather Information
Wind Direction
  180 °
Wind Speed
  07 kt (8 mph)
Wind Gust
  00 kt (0 mph)
Altimeter
29.81 in
Visibility
5 SM
Temperature
18° C
64° F
Dewpoint
17° C
63° F
Humidity
94%
1hr Rain Fall
00.13 in.
24hr Rain Fall
00.39 in.
Sky Condition
Overcast @ 3,100 ft
Broken @ 2,000 ft
Scattered @ 1,300 ft
MVFR

METAR K6B0 251138Z AUTO 18007KT 5SM +RA SCT013 BKN020 OVC031 18/17 A2981 RMK AO2 P0013 T01800173

FAA Disclaimer: The data displayed is for advisory purposes only and is not to be used for flight planning or operations.